createdAt,value
2022-11-13T00:02:21.021Z,7.40
2022-11-13T00:05:08.108Z,8.60
2022-11-13T00:07:55.041Z,10.67
2022-11-13T00:10:41.978Z,9.80
2022-11-13T00:13:30.652Z,9.97
2022-11-13T00:16:20.326Z,8.53
2022-11-13T00:19:07.291Z,8.50
2022-11-13T00:21:56.737Z,8.17
2022-11-13T00:24:43.698Z,9.63
2022-11-13T00:27:31.717Z,7.57
2022-11-13T00:30:19.694Z,9.00
2022-11-13T00:33:06.929Z,8.10
2022-11-13T00:35:53.979Z,7.93
2022-11-13T00:38:41.099Z,7.73
2022-11-13T00:41:28.076Z,8.17
2022-11-13T00:44:15.042Z,8.50
2022-11-13T00:47:02.105Z,7.13
2022-11-13T00:49:49.035Z,8.63
2022-11-13T00:52:35.991Z,8.60
2022-11-13T00:55:22.936Z,8.93
2022-11-13T00:58:11.063Z,9.33
2022-11-13T01:01:11.511Z,8.63
2022-11-13T01:03:58.495Z,7.93
2022-11-13T01:06:46.039Z,8.53
2022-11-13T01:09:33.090Z,7.60
2022-11-13T01:12:20.015Z,8.10
2022-11-13T01:15:07.417Z,8.33
2022-11-13T01:17:55.083Z,8.23
2022-11-13T01:20:42.014Z,7.70
2022-11-13T01:23:28.933Z,7.60
2022-11-13T01:26:21.989Z,8.30
2022-11-13T01:29:10.489Z,7.87
2022-11-13T01:31:57.455Z,8.57
2022-11-13T01:34:44.377Z,8.33
2022-11-13T01:37:31.301Z,8.80
2022-11-13T01:40:18.460Z,9.27
2022-11-13T01:43:28.889Z,9.83
2022-11-13T01:46:17.506Z,9.30
2022-11-13T01:49:10.460Z,8.73
2022-11-13T01:52:06.934Z,8.37
2022-11-13T01:55:08.133Z,8.87
2022-11-13T01:57:55.277Z,9.03
2022-11-13T02:00:42.384Z,8.20
2022-11-13T02:03:29.357Z,10.30
2022-11-13T02:06:16.633Z,10.57
2022-11-13T02:09:04.661Z,9.90
2022-11-13T02:11:52.552Z,10.60
2022-11-13T02:14:46.131Z,10.13
2022-11-13T02:17:38.955Z,9.97
2022-11-13T02:21:07.737Z,10.43
2022-11-13T02:24:11.281Z,10.37
2022-11-13T02:27:02.715Z,9.27
2022-11-13T02:29:49.619Z,9.83
2022-11-13T02:32:45.987Z,10.20
2022-11-13T02:35:37.368Z,9.47
2022-11-13T02:38:24.316Z,10.53
2022-11-13T02:41:11.250Z,10.83
2022-11-13T02:43:58.218Z,10.17
2022-11-13T02:46:45.158Z,11.17
2022-11-13T02:49:32.082Z,11.07
2022-11-13T02:52:19.045Z,8.87
2022-11-13T02:55:06.667Z,8.97
2022-11-13T02:57:53.836Z,9.73
2022-11-13T03:00:40.747Z,8.97
2022-11-13T03:03:56.045Z,8.50
2022-11-13T03:06:34.563Z,9.70
2022-11-13T03:09:21.513Z,9.50
2022-11-13T03:12:09.651Z,9.93
2022-11-13T03:14:56.607Z,8.50
2022-11-13T03:17:43.602Z,9.63
2022-11-13T03:20:30.715Z,9.77
2022-11-13T03:23:17.615Z,10.63
2022-11-13T03:26:10.743Z,9.70
2022-11-13T03:28:57.724Z,11.33
2022-11-13T03:31:44.636Z,11.93
2022-11-13T03:34:32.237Z,13.97
2022-11-13T03:37:19.164Z,13.70
2022-11-13T03:40:06.876Z,12.70
2022-11-13T03:42:53.784Z,13.60
2022-11-13T03:45:40.716Z,15.03
2022-11-13T03:48:28.053Z,14.17
2022-11-13T03:51:15.308Z,15.17
2022-11-13T03:54:02.264Z,12.50
2022-11-13T03:56:49.221Z,14.53
2022-11-13T03:59:36.147Z,15.67
2022-11-13T04:02:23.113Z,14.10
2022-11-13T04:05:10.528Z,12.33
2022-11-13T04:07:57.487Z,14.57
2022-11-13T04:10:45.435Z,11.20
2022-11-13T04:13:32.604Z,12.23
2022-11-13T04:16:19.519Z,14.13
2022-11-13T04:19:06.559Z,13.10
2022-11-13T04:21:53.445Z,10.47
2022-11-13T04:24:40.362Z,10.70
2022-11-13T04:27:27.358Z,10.17
2022-11-13T04:30:14.283Z,11.17
2022-11-13T04:33:02.010Z,10.60
2022-11-13T04:35:49.014Z,11.53
2022-11-13T04:38:36.059Z,9.90
2022-11-13T04:41:41.605Z,9.13
2022-11-13T04:44:28.518Z,8.20
2022-11-13T04:47:15.493Z,8.43
2022-11-13T04:50:03.441Z,8.37
2022-11-13T04:52:50.401Z,7.53
2022-11-13T04:55:37.327Z,7.70
2022-11-13T04:58:24.276Z,7.47
2022-11-13T05:01:11.194Z,8.53
2022-11-13T05:03:58.154Z,8.83
2022-11-13T05:06:45.134Z,8.37
2022-11-13T05:09:32.139Z,8.17
2022-11-13T05:12:20.724Z,7.97
2022-11-13T05:15:08.166Z,7.70
2022-11-13T05:17:55.744Z,8.40
2022-11-13T05:20:42.708Z,8.10
2022-11-13T05:23:29.700Z,9.23
2022-11-13T05:26:16.636Z,9.10
2022-11-13T05:29:03.782Z,8.43
2022-11-13T05:31:50.716Z,8.00
2022-11-13T05:34:37.629Z,8.57
2022-11-13T05:37:24.558Z,9.27
2022-11-13T05:40:12.094Z,8.67
2022-11-13T05:42:59.049Z,9.67
2022-11-13T05:45:45.975Z,9.40
2022-11-13T05:48:33.853Z,8.53
2022-11-13T05:51:32.491Z,8.50
2022-11-13T05:54:19.415Z,8.73
2022-11-13T05:57:06.397Z,9.10
2022-11-13T05:59:53.335Z,9.30
2022-11-13T06:02:40.282Z,9.77
2022-11-13T06:05:27.191Z,9.13
2022-11-13T06:08:14.126Z,9.50
2022-11-13T06:11:03.385Z,9.00
2022-11-13T06:13:51.060Z,9.77
2022-11-13T06:16:38.892Z,9.97
2022-11-13T06:19:25.937Z,11.90
2022-11-13T06:22:12.868Z,9.83
2022-11-13T06:24:59.781Z,10.17
2022-11-13T06:27:46.705Z,10.80
2022-11-13T06:30:33.638Z,10.40
2022-11-13T06:33:20.590Z,11.10
2022-11-13T06:36:12.980Z,9.03
2022-11-13T06:39:00.195Z,9.10
2022-11-13T06:41:47.215Z,9.53
2022-11-13T06:44:34.128Z,9.63
2022-11-13T06:47:21.074Z,9.10
2022-11-13T06:50:08.581Z,9.40
2022-11-13T06:52:55.514Z,9.57
2022-11-13T06:55:48.119Z,10.73
2022-11-13T06:58:35.135Z,11.03
2022-11-13T07:01:24.514Z,11.03
2022-11-13T07:04:12.773Z,9.53
2022-11-13T07:06:59.703Z,10.30
2022-11-13T07:09:46.616Z,10.83
2022-11-13T07:12:33.634Z,10.93
2022-11-13T07:15:20.539Z,11.40
2022-11-13T07:18:07.669Z,12.20
2022-11-13T07:20:54.571Z,13.53
2022-11-13T07:23:43.186Z,12.87
2022-11-13T07:26:30.304Z,15.67
2022-11-13T07:29:17.223Z,15.07
2022-11-13T07:32:04.580Z,16.37
2022-11-13T07:34:51.498Z,15.63
2022-11-13T07:37:38.990Z,17.00
2022-11-13T07:40:26.019Z,18.87
2022-11-13T07:43:13.735Z,22.37
2022-11-13T07:46:01.697Z,19.80
2022-11-13T07:48:48.715Z,22.13
2022-11-13T07:51:35.689Z,22.57
2022-11-13T07:54:22.660Z,22.60
2022-11-13T07:57:09.822Z,24.10
2022-11-13T07:59:56.763Z,23.67
2022-11-13T08:02:43.729Z,24.97
2022-11-13T08:05:30.914Z,25.03
2022-11-13T08:08:17.847Z,23.77
2022-11-13T08:11:07.246Z,25.83
2022-11-13T08:13:54.179Z,25.83
2022-11-13T08:16:41.228Z,26.07
2022-11-13T08:19:28.159Z,24.67
2022-11-13T08:22:15.301Z,23.20
2022-11-13T08:25:02.394Z,23.83
2022-11-13T08:27:49.453Z,23.77
2022-11-13T08:30:36.386Z,23.93
2022-11-13T08:33:23.362Z,24.20
2022-11-13T08:36:11.425Z,24.70
2022-11-13T08:38:58.386Z,21.93
2022-11-13T08:41:45.296Z,22.33
2022-11-13T08:44:32.243Z,23.77
2022-11-13T08:47:19.186Z,24.30
2022-11-13T08:50:06.744Z,22.60
2022-11-13T08:52:57.760Z,21.37
2022-11-13T08:55:44.692Z,21.30
2022-11-13T08:58:32.056Z,18.83
2022-11-13T09:01:22.719Z,19.30
2022-11-13T09:04:09.840Z,19.63
2022-11-13T09:06:57.242Z,18.57
2022-11-13T09:09:44.350Z,19.20
2022-11-13T09:12:31.310Z,20.20
2022-11-13T09:15:24.173Z,19.57
2022-11-13T09:18:11.763Z,20.13
2022-11-13T09:21:02.715Z,19.53
2022-11-13T09:23:50.324Z,20.00
2022-11-13T09:26:37.304Z,19.80
2022-11-13T09:29:26.161Z,19.27
2022-11-13T09:32:13.095Z,19.77
2022-11-13T09:35:00.008Z,19.97
2022-11-13T09:37:51.629Z,19.33
2022-11-13T09:40:41.583Z,19.20
2022-11-13T09:43:53.028Z,17.97
2022-11-13T09:46:55.979Z,18.73
2022-11-13T09:49:47.172Z,18.30
2022-11-13T09:52:41.318Z,17.90
2022-11-13T09:55:34.668Z,18.43
2022-11-13T09:58:37.429Z,18.50
2022-11-13T10:01:38.152Z,18.60
2022-11-13T10:04:44.562Z,20.03
2022-11-13T10:07:41.009Z,19.70
2022-11-13T10:10:56.242Z,18.50
2022-11-13T10:13:50.700Z,18.00
2022-11-13T10:16:56.413Z,18.87
2022-11-13T10:19:59.244Z,19.63
2022-11-13T10:22:51.623Z,19.77
2022-11-13T10:25:44.340Z,21.03
2022-11-13T10:31:46.593Z,19.27
2022-11-13T10:34:33.667Z,18.53
2022-11-13T10:37:39.879Z,18.30
2022-11-13T10:40:29.282Z,19.53
2022-11-13T10:43:18.721Z,18.17
2022-11-13T10:46:07.015Z,19.30
2022-11-13T10:48:53.969Z,18.40
2022-11-13T10:51:41.292Z,18.97
2022-11-13T10:54:31.161Z,18.00
2022-11-13T10:57:36.419Z,16.67
2022-11-13T11:00:25.475Z,16.73
2022-11-13T11:03:27.199Z,16.43
2022-11-13T11:06:14.119Z,18.80
2022-11-13T11:09:25.781Z,18.33
2022-11-13T11:12:19.390Z,17.87
2022-11-13T11:15:41.817Z,17.77
2022-11-13T11:19:01.699Z,17.13
2022-11-13T11:21:53.722Z,17.27
2022-11-13T11:25:06.196Z,17.40
2022-11-13T11:28:00.805Z,18.17
2022-11-13T11:30:53.745Z,19.00
2022-11-13T11:33:52.468Z,17.23
2022-11-13T11:37:08.211Z,20.07
2022-11-13T11:40:00.927Z,20.10
2022-11-13T11:42:49.825Z,19.33
2022-11-13T11:45:44.535Z,18.70
2022-11-13T11:48:33.001Z,21.27
2022-11-13T11:51:34.625Z,19.37
2022-11-13T11:54:21.534Z,18.73
2022-11-13T11:57:39.566Z,17.20
2022-11-13T12:00:31.972Z,18.13
2022-11-13T12:03:37.612Z,18.67
2022-11-13T12:06:46.103Z,17.40
2022-11-13T12:09:41.223Z,17.73
2022-11-13T12:12:51.580Z,18.37
2022-11-13T12:15:52.163Z,18.10
2022-11-13T12:18:48.192Z,17.70
2022-11-13T12:22:24.874Z,18.17
2022-11-13T12:25:32.794Z,17.20
2022-11-13T12:28:40.778Z,17.70
2022-11-13T12:31:46.306Z,18.60
2022-11-13T12:34:45.790Z,19.17
2022-11-13T12:37:53.387Z,20.63
2022-11-13T12:41:02.431Z,18.13
2022-11-13T12:44:12.241Z,17.93
2022-11-13T12:47:02.466Z,17.57
2022-11-13T12:50:00.173Z,18.20
2022-11-13T12:53:01.510Z,18.20
2022-11-13T12:56:00.101Z,18.43
2022-11-13T12:59:23.819Z,18.53
2022-11-13T13:02:06.888Z,18.37
2022-11-13T13:05:30.805Z,17.77
2022-11-13T13:08:20.917Z,18.10
2022-11-13T13:11:16.848Z,16.90
2022-11-13T13:14:31.958Z,18.70
2022-11-13T13:17:22.623Z,18.37
2022-11-13T13:20:15.743Z,18.50
2022-11-13T13:23:08.326Z,19.43
2022-11-13T13:26:22.711Z,18.17
2022-11-13T13:29:24.877Z,18.47
2022-11-13T13:32:33.694Z,18.60
2022-11-13T13:35:28.341Z,17.90
2022-11-13T13:38:29.309Z,18.80
2022-11-13T13:41:17.814Z,17.23
2022-11-13T13:44:13.981Z,18.07
2022-11-13T13:47:02.034Z,17.97
2022-11-13T13:49:53.071Z,17.37
2022-11-13T13:52:40.224Z,17.13
2022-11-13T13:55:28.644Z,17.17
2022-11-13T13:58:21.466Z,18.00
2022-11-13T14:01:19.918Z,16.77
2022-11-13T14:04:21.408Z,17.27
2022-11-13T14:07:27.641Z,16.37
2022-11-13T14:10:16.500Z,17.23
2022-11-13T14:13:04.132Z,16.57
2022-11-13T14:16:04.693Z,15.37
2022-11-13T14:19:02.105Z,13.87
2022-11-13T14:21:53.873Z,14.63
2022-11-13T14:24:58.594Z,15.53
2022-11-13T14:27:45.631Z,14.53
2022-11-13T14:30:32.646Z,13.70
2022-11-13T14:33:23.670Z,14.20
2022-11-13T14:36:11.346Z,13.03
2022-11-13T14:38:59.214Z,11.93
2022-11-13T14:41:51.474Z,12.30
2022-11-13T14:44:38.396Z,11.17
2022-11-13T14:47:37.317Z,10.87
2022-11-13T14:50:34.446Z,9.77
2022-11-13T14:53:42.154Z,11.00
2022-11-13T14:56:41.106Z,10.00
2022-11-13T14:59:29.269Z,9.97
2022-11-13T15:02:20.455Z,9.20
2022-11-13T15:05:10.057Z,9.33
2022-11-13T15:07:57.829Z,8.90
2022-11-13T15:10:44.991Z,9.27
2022-11-13T15:13:34.774Z,8.90
2022-11-13T15:16:28.883Z,8.97
2022-11-13T15:19:20.045Z,8.20
2022-11-13T15:22:28.687Z,9.17
2022-11-13T15:25:17.775Z,8.27
2022-11-13T15:28:04.920Z,9.00
2022-11-13T15:30:52.060Z,9.97
2022-11-13T15:33:41.507Z,9.73
2022-11-13T15:36:28.461Z,9.50
2022-11-13T15:39:22.912Z,8.37
2022-11-13T15:42:17.006Z,8.80
2022-11-13T15:45:06.177Z,9.73
2022-11-13T15:47:53.516Z,9.27
2022-11-13T15:50:40.550Z,9.03
2022-11-13T15:53:28.214Z,9.50
2022-11-13T15:56:15.980Z,8.80
2022-11-13T15:59:02.910Z,8.90
2022-11-13T16:01:51.761Z,8.73
2022-11-13T16:04:56.011Z,8.10
2022-11-13T16:07:44.081Z,6.90
2022-11-13T16:10:31.421Z,7.70
2022-11-13T16:13:18.781Z,7.27
2022-11-13T16:16:05.875Z,7.80
2022-11-13T16:18:58.768Z,8.07
2022-11-13T16:21:47.071Z,8.20
2022-11-13T16:24:34.033Z,7.70
2022-11-13T16:27:27.647Z,6.23
2022-11-13T16:30:20.378Z,5.90
2022-11-13T16:33:09.914Z,6.10
2022-11-13T16:35:57.452Z,6.00
2022-11-13T16:38:45.445Z,6.17
2022-11-13T16:41:33.255Z,5.87
2022-11-13T16:44:20.757Z,5.40
2022-11-13T16:47:15.099Z,5.13
2022-11-13T16:50:02.717Z,5.03
2022-11-13T16:52:50.092Z,5.10
2022-11-13T16:55:37.575Z,5.50
2022-11-13T16:58:24.921Z,5.63
2022-11-13T17:01:16.561Z,4.87
2022-11-13T17:04:04.102Z,5.53
2022-11-13T17:06:55.337Z,5.57
2022-11-13T17:09:45.035Z,5.87
2022-11-13T17:12:32.449Z,4.47
2022-11-13T17:15:20.706Z,4.93
2022-11-13T17:18:10.374Z,5.00
2022-11-13T17:20:57.750Z,5.37
2022-11-13T17:23:45.158Z,4.80
2022-11-13T17:26:32.739Z,5.47
2022-11-13T17:29:20.159Z,5.50
2022-11-13T17:32:07.113Z,6.60
2022-11-13T17:34:54.029Z,6.37
2022-11-13T17:37:41.004Z,5.50
2022-11-13T17:40:28.705Z,5.80
2022-11-13T17:43:18.432Z,6.27
2022-11-13T17:46:06.093Z,5.77
2022-11-13T17:48:54.056Z,6.00
2022-11-13T17:51:41.368Z,6.40
2022-11-13T17:54:29.256Z,5.97
2022-11-13T17:57:16.611Z,6.33
2022-11-13T18:00:04.328Z,5.83
2022-11-13T18:02:51.262Z,5.50
2022-11-13T18:05:40.761Z,5.83
2022-11-13T18:08:28.145Z,6.17
2022-11-13T18:11:22.058Z,5.70
2022-11-13T18:14:09.228Z,6.17
2022-11-13T18:16:56.181Z,6.40
2022-11-13T18:19:43.154Z,6.13
2022-11-13T18:22:30.123Z,6.60
2022-11-13T18:25:18.087Z,6.50
2022-11-13T18:28:05.123Z,6.13
2022-11-13T18:30:56.451Z,5.80
2022-11-13T18:33:44.326Z,6.30
2022-11-13T18:36:33.028Z,6.70
2022-11-13T18:39:20.507Z,7.27
2022-11-13T18:42:07.445Z,6.40
2022-11-13T18:44:54.551Z,7.17
2022-11-13T18:47:41.685Z,6.73
2022-11-13T18:50:28.693Z,6.90
2022-11-13T18:53:15.604Z,6.00
2022-11-13T18:56:10.115Z,6.77
2022-11-13T18:58:58.178Z,7.60
2022-11-13T19:01:46.164Z,6.70
2022-11-13T19:04:35.213Z,7.23
2022-11-13T19:07:22.708Z,6.93
2022-11-13T19:10:10.196Z,6.90
2022-11-13T19:12:57.578Z,7.23
2022-11-13T19:15:44.910Z,7.10
2022-11-13T19:18:32.837Z,7.03
2022-11-13T19:21:20.767Z,6.90
2022-11-13T19:24:08.673Z,7.33
2022-11-13T19:26:56.006Z,7.43
2022-11-13T19:29:43.390Z,6.70
2022-11-13T19:32:30.768Z,7.17
2022-11-13T19:35:18.130Z,7.60
2022-11-13T19:38:05.470Z,7.47
2022-11-13T19:40:53.225Z,7.50
2022-11-13T19:43:41.471Z,6.93
2022-11-13T19:46:29.610Z,7.73
2022-11-13T19:49:16.947Z,7.30
2022-11-13T19:52:04.370Z,7.43
2022-11-13T19:54:51.714Z,6.93
2022-11-13T19:57:44.952Z,8.33
2022-11-13T20:00:33.549Z,7.97
2022-11-13T20:03:20.994Z,8.33
2022-11-13T20:06:08.871Z,8.07
2022-11-13T20:08:56.298Z,7.97
2022-11-13T20:11:45.089Z,8.00
2022-11-13T20:14:37.924Z,8.17
2022-11-13T20:17:25.837Z,8.33
2022-11-13T20:20:13.226Z,7.90
2022-11-13T20:23:00.640Z,8.37
2022-11-13T20:25:58.709Z,9.10
2022-11-13T20:28:46.091Z,8.03
2022-11-13T20:31:33.470Z,9.67
2022-11-13T20:34:20.823Z,8.50
2022-11-13T20:37:08.162Z,8.63
2022-11-13T20:39:57.030Z,9.07
2022-11-13T20:42:44.373Z,9.00
2022-11-13T20:45:31.733Z,9.67
2022-11-13T20:48:19.159Z,9.63
2022-11-13T20:51:11.309Z,8.63
2022-11-13T20:53:58.758Z,8.97
2022-11-13T20:56:46.127Z,8.53
2022-11-13T20:59:33.511Z,10.57
2022-11-13T21:02:20.876Z,12.43
2022-11-13T21:05:08.751Z,16.73
2022-11-13T21:07:56.145Z,18.97
2022-11-13T21:10:43.496Z,19.60
2022-11-13T21:13:31.539Z,18.77
2022-11-13T21:16:19.771Z,20.40
2022-11-13T21:19:07.090Z,20.60
2022-11-13T21:21:54.447Z,19.67
2022-11-13T21:24:41.884Z,21.07
2022-11-13T21:27:29.331Z,21.33
2022-11-13T21:30:17.244Z,22.87
2022-11-13T21:33:04.611Z,22.30
2022-11-13T21:35:51.956Z,22.33
2022-11-13T21:38:39.439Z,23.07
2022-11-13T21:41:27.044Z,22.23
2022-11-13T21:44:14.415Z,20.87
2022-11-13T21:47:01.762Z,21.10
2022-11-13T21:49:49.115Z,21.33
2022-11-13T21:52:36.466Z,21.37
2022-11-13T21:55:23.825Z,20.50
2022-11-13T21:58:11.137Z,20.50
2022-11-13T22:00:58.691Z,20.30
2022-11-13T22:03:46.179Z,18.57
2022-11-13T22:06:36.110Z,18.03
2022-11-13T22:09:25.391Z,18.27
2022-11-13T22:12:12.838Z,17.50
2022-11-13T22:15:00.219Z,18.73
2022-11-13T22:17:47.557Z,18.50
2022-11-13T22:20:34.909Z,18.00
2022-11-13T22:23:22.337Z,20.37
2022-11-13T22:26:11.418Z,17.83
2022-11-13T22:29:00.029Z,20.53
2022-11-13T22:31:47.990Z,20.97
2022-11-13T22:34:35.415Z,20.90
2022-11-13T22:37:22.947Z,21.50
2022-11-13T22:40:10.724Z,21.83
2022-11-13T22:42:58.072Z,22.80
2022-11-13T22:45:45.868Z,22.27
2022-11-13T22:48:34.526Z,22.00
2022-11-13T22:51:23.394Z,23.03
2022-11-13T22:54:11.929Z,21.83
2022-11-13T22:57:03.894Z,22.30
2022-11-13T22:59:51.274Z,23.40
2022-11-13T23:02:43.037Z,22.57
2022-11-13T23:05:35.835Z,21.10
2022-11-13T23:08:23.270Z,22.67
2022-11-13T23:11:14.041Z,21.47
2022-11-13T23:14:02.756Z,21.53
2022-11-13T23:16:50.175Z,22.83
2022-11-13T23:19:37.508Z,22.13
2022-11-13T23:22:24.835Z,22.50
2022-11-13T23:25:12.185Z,21.60
2022-11-13T23:27:59.499Z,21.63
2022-11-13T23:30:46.900Z,21.20
2022-11-13T23:33:34.416Z,21.43
2022-11-13T23:36:21.877Z,23.07
2022-11-13T23:39:09.284Z,22.53
2022-11-13T23:41:56.701Z,21.67
2022-11-13T23:44:44.041Z,22.33
2022-11-13T23:47:31.433Z,22.77
2022-11-13T23:50:18.909Z,22.97
2022-11-13T23:53:06.250Z,23.07
2022-11-13T23:55:53.995Z,21.40
2022-11-13T23:58:41.359Z,22.10
